KPBG/PBG METAR and TAF weather

Enter ICAO airport designator
Station Type Date Time Source
KPBG METAR 2019/08/25 19:53 UTC NOAA

KPBG 251953Z AUTO 14003KT 10SM CLR 24/11 A3028 RMK AO2 SLP255 T02390111


Station Type Date Time Source
KPBG Decoded METAR 2019/08/25 19:53 UTC NOAA

Station name not available
Aug 25, 2019 - 03:53 PM EDT / 2019.08.25 1953 UTC
Wind: from the SE (140 degrees) at 3 MPH (3 KT):0
Visibility: 10 mile(s):0
Sky conditions: clear
Temperature: 75.0 F (23.9 C)
Dew Point: 52.0 F (11.1 C)
Relative Humidity: 44%
Pressure (altimeter): 30.28 in. Hg (1025 hPa)
ob: KPBG 251953Z AUTO 14003KT 10SM CLR 24/11 A3028 RMK AO2 SLP255 T02390111
cycle: 20

Station Type Date Time Source
KPBG TAF 2019/08/25 18:24 UTC NOAA

TAF KPBG 251720Z 2518/2618 14006KT P6SM SKC
FM252300 VRB03KT P6SM SKC

Example: see airport list